Terminal Aerodrome Forecast
Issued by NWS

Home | Current Version | Previous Version | Text Only | Print | Product List | Glossary On
Versions: 1 2 3 4 5 6 7 8 9 10 11 12 13 14
000
FTUS44 KSJT 231153
TAFSOA
TAF
KSOA 231153Z 2312/2412 15010KT P6SM BKN015
     FM231500 16013G20KT P6SM BKN015
     FM231800 15012G17KT P6SM SCT040
     FM240000 15011KT P6SM SCT250
     FM240700 15012KT P6SM OVC015=

USA.gov is the U.S. government's official web portal to all federal, state and local government web resources and services.